sensor_id;sensor_type;location;lat;lon;timestamp;temperature;humidity
51007;DHT22;37034;47.886;-3.904;2022-08-01T00:01:21;22.90;83.20
51007;DHT22;37034;47.886;-3.904;2022-08-01T00:03:47;22.90;83.30
51007;DHT22;37034;47.886;-3.904;2022-08-01T00:06:12;22.90;83.40
51007;DHT22;37034;47.886;-3.904;2022-08-01T00:08:38;22.90;83.50
51007;DHT22;37034;47.886;-3.904;2022-08-01T00:11:04;22.90;83.50
51007;DHT22;37034;47.886;-3.904;2022-08-01T00:13:29;22.90;83.30
51007;DHT22;37034;47.886;-3.904;2022-08-01T00:15:55;22.80;83.60
51007;DHT22;37034;47.886;-3.904;2022-08-01T00:18:21;22.80;83.40
51007;DHT22;37034;47.886;-3.904;2022-08-01T00:20:47;22.80;84.00
51007;DHT22;37034;47.886;-3.904;2022-08-01T00:23:12;22.70;83.90
51007;DHT22;37034;47.886;-3.904;2022-08-01T00:25:38;22.60;84.00
51007;DHT22;37034;47.886;-3.904;2022-08-01T00:28:04;22.60;84.10
51007;DHT22;37034;47.886;-3.904;2022-08-01T00:30:34;22.70;84.30
51007;DHT22;37034;47.886;-3.904;2022-08-01T00:32:59;22.70;84.20
51007;DHT22;37034;47.886;-3.904;2022-08-01T00:35:25;22.70;84.30
51007;DHT22;37034;47.886;-3.904;2022-08-01T00:37:51;22.70;84.40
51007;DHT22;37034;47.886;-3.904;2022-08-01T00:40:17;22.70;84.20
51007;DHT22;37034;47.886;-3.904;2022-08-01T00:42:42;22.70;84.70
51007;DHT22;37034;47.886;-3.904;2022-08-01T00:45:08;22.80;84.50
51007;DHT22;37034;47.886;-3.904;2022-08-01T00:47:34;22.80;84.20
51007;DHT22;37034;47.886;-3.904;2022-08-01T00:50:00;22.80;84.30
51007;DHT22;37034;47.886;-3.904;2022-08-01T00:52:26;22.70;84.40
51007;DHT22;37034;47.886;-3.904;2022-08-01T00:54:52;22.70;84.20
51007;DHT22;37034;47.886;-3.904;2022-08-01T00:57:17;22.70;84.10
51007;DHT22;37034;47.886;-3.904;2022-08-01T00:59:43;22.60;84.20
51007;DHT22;37034;47.886;-3.904;2022-08-01T01:02:09;22.60;84.40
51007;DHT22;37034;47.886;-3.904;2022-08-01T01:04:34;22.60;84.40
51007;DHT22;37034;47.886;-3.904;2022-08-01T01:12:38;22.60;84.00
51007;DHT22;37034;47.886;-3.904;2022-08-01T01:15:19;22.60;84.40
51007;DHT22;37034;47.886;-3.904;2022-08-01T01:18:03;22.50;84.60
51007;DHT22;37034;47.886;-3.904;2022-08-01T01:20:36;22.50;84.70
51007;DHT22;37034;47.886;-3.904;2022-08-01T01:23:18;22.50;84.70
51007;DHT22;37034;47.886;-3.904;2022-08-01T01:31:09;22.50;84.50
51007;DHT22;37034;47.886;-3.904;2022-08-01T01:33:37;22.50;84.30
51007;DHT22;37034;47.886;-3.904;2022-08-01T01:36:07;22.30;84.50
51007;DHT22;37034;47.886;-3.904;2022-08-01T01:38:37;22.30;85.00
51007;DHT22;37034;47.886;-3.904;2022-08-01T01:41:08;22.30;84.90
51007;DHT22;37034;47.886;-3.904;2022-08-01T01:43:35;22.30;84.80
51007;DHT22;37034;47.886;-3.904;2022-08-01T01:46:05;22.30;84.90
51007;DHT22;37034;47.886;-3.904;2022-08-01T01:48:34;22.30;85.00
51007;DHT22;37034;47.886;-3.904;2022-08-01T01:51:01;22.30;85.00
51007;DHT22;37034;47.886;-3.904;2022-08-01T01:53:28;22.30;85.00
51007;DHT22;37034;47.886;-3.904;2022-08-01T01:55:57;22.20;85.10
51007;DHT22;37034;47.886;-3.904;2022-08-01T01:58:24;22.10;85.20
51007;DHT22;37034;47.886;-3.904;2022-08-01T02:00:52;22.10;85.20
51007;DHT22;37034;47.886;-3.904;2022-08-01T02:03:19;22.20;85.20
51007;DHT22;37034;47.886;-3.904;2022-08-01T02:05:46;22.20;85.30
51007;DHT22;37034;47.886;-3.904;2022-08-01T02:08:15;22.20;85.20
51007;DHT22;37034;47.886;-3.904;2022-08-01T02:10:42;22.20;85.30
51007;DHT22;37034;47.886;-3.904;2022-08-01T02:13:32;22.20;85.20
51007;DHT22;37034;47.886;-3.904;2022-08-01T02:16:00;22.10;85.20
51007;DHT22;37034;47.886;-3.904;2022-08-01T02:18:26;22.10;85.30
51007;DHT22;37034;47.886;-3.904;2022-08-01T02:20:54;22.20;85.30
51007;DHT22;37034;47.886;-3.904;2022-08-01T02:23:20;22.20;85.20
51007;DHT22;37034;47.886;-3.904;2022-08-01T02:25:50;22.10;85.00
51007;DHT22;37034;47.886;-3.904;2022-08-01T02:28:29;22.10;84.90
51007;DHT22;37034;47.886;-3.904;2022-08-01T02:31:01;22.10;85.20
51007;DHT22;37034;47.886;-3.904;2022-08-01T02:33:34;22.10;85.10
51007;DHT22;37034;47.886;-3.904;2022-08-01T02:36:02;22.10;85.30
51007;DHT22;37034;47.886;-3.904;2022-08-01T02:38:31;22.10;85.20
51007;DHT22;37034;47.886;-3.904;2022-08-01T02:40:59;22.00;84.70
51007;DHT22;37034;47.886;-3.904;2022-08-01T02:43:30;22.00;84.80
51007;DHT22;37034;47.886;-3.904;2022-08-01T02:46:01;22.00;85.00
51007;DHT22;37034;47.886;-3.904;2022-08-01T02:48:30;21.90;84.90
51007;DHT22;37034;47.886;-3.904;2022-08-01T02:51:00;22.00;85.50
51007;DHT22;37034;47.886;-3.904;2022-08-01T02:53:29;22.00;85.30
51007;DHT22;37034;47.886;-3.904;2022-08-01T02:55:57;22.00;85.40
51007;DHT22;37034;47.886;-3.904;2022-08-01T02:58:24;22.00;85.40
51007;DHT22;37034;47.886;-3.904;2022-08-01T03:00:51;21.90;85.10
51007;DHT22;37034;47.886;-3.904;2022-08-01T03:03:17;21.90;85.30
51007;DHT22;37034;47.886;-3.904;2022-08-01T03:05:43;21.90;85.10
51007;DHT22;37034;47.886;-3.904;2022-08-01T03:08:10;21.90;85.70
51007;DHT22;37034;47.886;-3.904;2022-08-01T03:10:38;21.90;85.80
51007;DHT22;37034;47.886;-3.904;2022-08-01T03:13:06;21.90;85.90
51007;DHT22;37034;47.886;-3.904;2022-08-01T03:15:35;22.00;86.20
51007;DHT22;37034;47.886;-3.904;2022-08-01T03:18:03;22.10;86.20
51007;DHT22;37034;47.886;-3.904;2022-08-01T03:20:31;22.10;85.80
51007;DHT22;37034;47.886;-3.904;2022-08-01T03:23:01;22.20;85.40
51007;DHT22;37034;47.886;-3.904;2022-08-01T03:25:28;22.10;85.30
51007;DHT22;37034;47.886;-3.904;2022-08-01T03:27:58;22.10;85.30
51007;DHT22;37034;47.886;-3.904;2022-08-01T03:30:26;22.10;85.80
51007;DHT22;37034;47.886;-3.904;2022-08-01T03:32:52;22.10;85.90
51007;DHT22;37034;47.886;-3.904;2022-08-01T03:35:19;22.10;85.70
51007;DHT22;37034;47.886;-3.904;2022-08-01T03:37:52;22.20;85.50
51007;DHT22;37034;47.886;-3.904;2022-08-01T03:42:58;22.10;85.70
51007;DHT22;37034;47.886;-3.904;2022-08-01T03:45:29;22.10;85.60
51007;DHT22;37034;47.886;-3.904;2022-08-01T03:47:59;22.00;85.30
51007;DHT22;37034;47.886;-3.904;2022-08-01T03:50:26;22.00;85.40
51007;DHT22;37034;47.886;-3.904;2022-08-01T03:52:53;21.80;85.10
51007;DHT22;37034;47.886;-3.904;2022-08-01T03:55:20;21.70;85.30
51007;DHT22;37034;47.886;-3.904;2022-08-01T03:57:47;21.60;85.60
51007;DHT22;37034;47.886;-3.904;2022-08-01T04:00:13;21.60;85.60
51007;DHT22;37034;47.886;-3.904;2022-08-01T04:02:46;21.60;85.60
51007;DHT22;37034;47.886;-3.904;2022-08-01T04:05:12;21.60;86.10
51007;DHT22;37034;47.886;-3.904;2022-08-01T04:07:38;21.60;86.00
51007;DHT22;37034;47.886;-3.904;2022-08-01T04:10:06;21.70;86.20
51007;DHT22;37034;47.886;-3.904;2022-08-01T04:12:33;21.70;86.00
51007;DHT22;37034;47.886;-3.904;2022-08-01T04:14:59;21.80;86.20
51007;DHT22;37034;47.886;-3.904;2022-08-01T04:17:25;21.70;85.60
51007;DHT22;37034;47.886;-3.904;2022-08-01T04:19:50;21.70;85.60
51007;DHT22;37034;47.886;-3.904;2022-08-01T04:22:16;21.70;85.50
51007;DHT22;37034;47.886;-3.904;2022-08-01T04:24:48;21.60;85.90
51007;DHT22;37034;47.886;-3.904;2022-08-01T04:27:32;21.60;85.70
51007;DHT22;37034;47.886;-3.904;2022-08-01T04:29:58;21.60;86.30
51007;DHT22;37034;47.886;-3.904;2022-08-01T04:32:27;21.70;86.30
51007;DHT22;37034;47.886;-3.904;2022-08-01T04:34:56;21.70;85.90
51007;DHT22;37034;47.886;-3.904;2022-08-01T04:37:24;21.70;85.90
51007;DHT22;37034;47.886;-3.904;2022-08-01T04:39:52;21.60;85.70
51007;DHT22;37034;47.886;-3.904;2022-08-01T04:42:19;21.70;86.00
51007;DHT22;37034;47.886;-3.904;2022-08-01T04:44:45;21.70;85.90
51007;DHT22;37034;47.886;-3.904;2022-08-01T04:47:11;21.60;85.90
51007;DHT22;37034;47.886;-3.904;2022-08-01T04:49:39;21.60;86.40
51007;DHT22;37034;47.886;-3.904;2022-08-01T04:52:06;21.60;85.90
51007;DHT22;37034;47.886;-3.904;2022-08-01T04:54:34;21.50;86.00
51007;DHT22;37034;47.886;-3.904;2022-08-01T04:57:03;21.50;86.20
51007;DHT22;37034;47.886;-3.904;2022-08-01T04:59:30;21.50;86.40
51007;DHT22;37034;47.886;-3.904;2022-08-01T05:02:11;21.50;87.30
51007;DHT22;37034;47.886;-3.904;2022-08-01T05:04:37;21.50;86.70
51007;DHT22;37034;47.886;-3.904;2022-08-01T05:07:04;21.40;86.60
51007;DHT22;37034;47.886;-3.904;2022-08-01T05:09:30;21.40;86.40
51007;DHT22;37034;47.886;-3.904;2022-08-01T05:11:59;21.50;87.00
51007;DHT22;37034;47.886;-3.904;2022-08-01T05:14:26;21.40;86.40
51007;DHT22;37034;47.886;-3.904;2022-08-01T05:16:52;21.50;86.50
51007;DHT22;37034;47.886;-3.904;2022-08-01T05:19:18;21.50;87.00
51007;DHT22;37034;47.886;-3.904;2022-08-01T05:21:44;21.50;86.80
51007;DHT22;37034;47.886;-3.904;2022-08-01T05:24:10;21.50;87.20
51007;DHT22;37034;47.886;-3.904;2022-08-01T05:26:35;21.60;86.80
51007;DHT22;37034;47.886;-3.904;2022-08-01T05:29:01;21.60;86.60
51007;DHT22;37034;47.886;-3.904;2022-08-01T05:31:27;21.70;86.50
51007;DHT22;37034;47.886;-3.904;2022-08-01T05:33:53;21.70;86.30
51007;DHT22;37034;47.886;-3.904;2022-08-01T05:36:19;21.70;86.40
51007;DHT22;37034;47.886;-3.904;2022-08-01T05:38:44;21.70;86.90
51007;DHT22;37034;47.886;-3.904;2022-08-01T05:41:10;21.80;87.00
51007;DHT22;37034;47.886;-3.904;2022-08-01T05:43:36;21.80;86.80
51007;DHT22;37034;47.886;-3.904;2022-08-01T05:46:02;21.90;86.50
51007;DHT22;37034;47.886;-3.904;2022-08-01T05:48:27;22.00;86.50
51007;DHT22;37034;47.886;-3.904;2022-08-01T05:50:54;22.00;86.10
51007;DHT22;37034;47.886;-3.904;2022-08-01T05:53:20;22.00;86.30
51007;DHT22;37034;47.886;-3.904;2022-08-01T05:55:45;22.00;86.20
51007;DHT22;37034;47.886;-3.904;2022-08-01T05:58:11;21.80;86.30
51007;DHT22;37034;47.886;-3.904;2022-08-01T06:00:37;21.90;86.60
51007;DHT22;37034;47.886;-3.904;2022-08-01T06:03:02;22.00;86.90
51007;DHT22;37034;47.886;-3.904;2022-08-01T06:05:28;22.00;86.40
51007;DHT22;37034;47.886;-3.904;2022-08-01T06:07:54;21.90;86.40
51007;DHT22;37034;47.886;-3.904;2022-08-01T06:10:19;22.00;86.60
51007;DHT22;37034;47.886;-3.904;2022-08-01T06:12:45;22.00;86.40
51007;DHT22;37034;47.886;-3.904;2022-08-01T06:15:11;21.90;86.40
51007;DHT22;37034;47.886;-3.904;2022-08-01T06:17:37;22.00;86.30
51007;DHT22;37034;47.886;-3.904;2022-08-01T06:20:03;22.00;86.50
51007;DHT22;37034;47.886;-3.904;2022-08-01T06:22:29;21.90;86.20
51007;DHT22;37034;47.886;-3.904;2022-08-01T06:24:55;21.90;86.00
51007;DHT22;37034;47.886;-3.904;2022-08-01T06:27:21;21.90;85.90
51007;DHT22;37034;47.886;-3.904;2022-08-01T06:29:46;21.90;86.00
51007;DHT22;37034;47.886;-3.904;2022-08-01T06:32:12;21.90;85.90
51007;DHT22;37034;47.886;-3.904;2022-08-01T06:34:38;22.00;86.40
51007;DHT22;37034;47.886;-3.904;2022-08-01T06:37:03;22.10;86.10
51007;DHT22;37034;47.886;-3.904;2022-08-01T06:39:29;22.00;85.30
51007;DHT22;37034;47.886;-3.904;2022-08-01T06:41:54;22.00;85.50
51007;DHT22;37034;47.886;-3.904;2022-08-01T06:44:20;21.90;85.50
51007;DHT22;37034;47.886;-3.904;2022-08-01T06:46:46;21.90;85.40
51007;DHT22;37034;47.886;-3.904;2022-08-01T06:49:11;21.90;85.70
51007;DHT22;37034;47.886;-3.904;2022-08-01T06:51:37;21.90;85.90
51007;DHT22;37034;47.886;-3.904;2022-08-01T06:54:02;22.00;86.00
51007;DHT22;37034;47.886;-3.904;2022-08-01T06:56:28;22.00;85.50
51007;DHT22;37034;47.886;-3.904;2022-08-01T06:58:54;22.10;85.60
51007;DHT22;37034;47.886;-3.904;2022-08-01T07:01:29;22.10;85.30
51007;DHT22;37034;47.886;-3.904;2022-08-01T07:03:54;22.20;85.60
51007;DHT22;37034;47.886;-3.904;2022-08-01T07:06:22;22.20;85.50
51007;DHT22;37034;47.886;-3.904;2022-08-01T07:08:47;22.30;85.30
51007;DHT22;37034;47.886;-3.904;2022-08-01T07:11:13;22.30;85.10
51007;DHT22;37034;47.886;-3.904;2022-08-01T07:13:39;22.30;85.30
51007;DHT22;37034;47.886;-3.904;2022-08-01T07:16:04;22.20;85.20
51007;DHT22;37034;47.886;-3.904;2022-08-01T07:18:30;22.30;86.10
51007;DHT22;37034;47.886;-3.904;2022-08-01T07:20:56;22.40;85.80
51007;DHT22;37034;47.886;-3.904;2022-08-01T07:23:21;22.50;85.20
51007;DHT22;37034;47.886;-3.904;2022-08-01T07:25:47;22.60;84.80
51007;DHT22;37034;47.886;-3.904;2022-08-01T07:28:14;22.60;84.80
51007;DHT22;37034;47.886;-3.904;2022-08-01T07:30:40;22.60;85.10
51007;DHT22;37034;47.886;-3.904;2022-08-01T07:33:07;22.70;84.70
51007;DHT22;37034;47.886;-3.904;2022-08-01T07:35:33;22.70;84.90
51007;DHT22;37034;47.886;-3.904;2022-08-01T07:37:59;22.80;85.10
51007;DHT22;37034;47.886;-3.904;2022-08-01T07:40:25;22.90;84.60
51007;DHT22;37034;47.886;-3.904;2022-08-01T07:42:50;22.90;84.50
51007;DHT22;37034;47.886;-3.904;2022-08-01T07:45:16;23.00;84.60
51007;DHT22;37034;47.886;-3.904;2022-08-01T07:47:42;23.00;84.40
51007;DHT22;37034;47.886;-3.904;2022-08-01T07:50:08;23.00;84.10
51007;DHT22;37034;47.886;-3.904;2022-08-01T07:52:33;23.00;83.60
51007;DHT22;37034;47.886;-3.904;2022-08-01T07:54:59;22.90;84.20
51007;DHT22;37034;47.886;-3.904;2022-08-01T07:57:25;23.00;84.20
51007;DHT22;37034;47.886;-3.904;2022-08-01T07:59:51;23.00;83.60
51007;DHT22;37034;47.886;-3.904;2022-08-01T08:02:17;22.90;83.70
51007;DHT22;37034;47.886;-3.904;2022-08-01T08:04:42;22.90;83.60
51007;DHT22;37034;47.886;-3.904;2022-08-01T08:07:08;22.80;84.00
51007;DHT22;37034;47.886;-3.904;2022-08-01T08:09:34;22.80;83.80
51007;DHT22;37034;47.886;-3.904;2022-08-01T08:11:59;22.80;83.90
51007;DHT22;37034;47.886;-3.904;2022-08-01T08:14:25;22.80;84.40
51007;DHT22;37034;47.886;-3.904;2022-08-01T08:16:51;22.90;84.80
51007;DHT22;37034;47.886;-3.904;2022-08-01T08:19:17;23.00;84.10
51007;DHT22;37034;47.886;-3.904;2022-08-01T08:21:42;23.10;84.10
51007;DHT22;37034;47.886;-3.904;2022-08-01T08:24:09;23.10;83.70
51007;DHT22;37034;47.886;-3.904;2022-08-01T08:26:51;23.10;83.80
51007;DHT22;37034;47.886;-3.904;2022-08-01T08:29:17;23.20;83.60
51007;DHT22;37034;47.886;-3.904;2022-08-01T08:31:43;23.10;82.90
51007;DHT22;37034;47.886;-3.904;2022-08-01T08:34:09;23.10;83.80
51007;DHT22;37034;47.886;-3.904;2022-08-01T08:36:34;23.10;83.60
51007;DHT22;37034;47.886;-3.904;2022-08-01T08:39:00;23.10;83.80
51007;DHT22;37034;47.886;-3.904;2022-08-01T08:41:26;23.20;83.80
51007;DHT22;37034;47.886;-3.904;2022-08-01T08:43:52;23.30;83.60
51007;DHT22;37034;47.886;-3.904;2022-08-01T08:46:19;23.30;83.60
51007;DHT22;37034;47.886;-3.904;2022-08-01T08:48:45;23.50;83.80
51007;DHT22;37034;47.886;-3.904;2022-08-01T08:51:11;23.60;83.60
51007;DHT22;37034;47.886;-3.904;2022-08-01T08:53:41;23.70;82.00
51007;DHT22;37034;47.886;-3.904;2022-08-01T08:56:12;23.70;82.00
51007;DHT22;37034;47.886;-3.904;2022-08-01T08:58:38;23.60;81.60
51007;DHT22;37034;47.886;-3.904;2022-08-01T09:01:06;23.60;81.80
51007;DHT22;37034;47.886;-3.904;2022-08-01T09:03:32;23.70;82.10
51007;DHT22;37034;47.886;-3.904;2022-08-01T09:05:58;23.70;82.00
51007;DHT22;37034;47.886;-3.904;2022-08-01T09:08:24;23.70;81.70
51007;DHT22;37034;47.886;-3.904;2022-08-01T09:10:49;23.70;81.70
51007;DHT22;37034;47.886;-3.904;2022-08-01T09:13:15;23.70;81.80
51007;DHT22;37034;47.886;-3.904;2022-08-01T09:15:53;23.70;81.70
51007;DHT22;37034;47.886;-3.904;2022-08-01T09:18:36;23.80;82.20
51007;DHT22;37034;47.886;-3.904;2022-08-01T09:21:17;23.90;81.50
51007;DHT22;37034;47.886;-3.904;2022-08-01T09:23:45;23.90;81.40
51007;DHT22;37034;47.886;-3.904;2022-08-01T09:26:13;24.00;81.20
51007;DHT22;37034;47.886;-3.904;2022-08-01T09:28:39;24.10;81.00
51007;DHT22;37034;47.886;-3.904;2022-08-01T09:31:15;24.10;80.80
51007;DHT22;37034;47.886;-3.904;2022-08-01T09:34:10;24.10;80.80
51007;DHT22;37034;47.886;-3.904;2022-08-01T09:36:50;24.10;80.00
51007;DHT22;37034;47.886;-3.904;2022-08-01T09:39:25;24.10;80.70
51007;DHT22;37034;47.886;-3.904;2022-08-01T09:41:56;24.20;80.70
51007;DHT22;37034;47.886;-3.904;2022-08-01T09:47:02;24.40;80.40
51007;DHT22;37034;47.886;-3.904;2022-08-01T09:49:30;24.60;79.80
51007;DHT22;37034;47.886;-3.904;2022-08-01T09:51:58;24.60;80.10
51007;DHT22;37034;47.886;-3.904;2022-08-01T09:54:32;24.70;80.10
51007;DHT22;37034;47.886;-3.904;2022-08-01T09:57:12;24.50;77.40
51007;DHT22;37034;47.886;-3.904;2022-08-01T09:59:41;24.20;79.60
51007;DHT22;37034;47.886;-3.904;2022-08-01T10:02:09;24.40;79.20
51007;DHT22;37034;47.886;-3.904;2022-08-01T10:04:36;24.60;79.90
51007;DHT22;37034;47.886;-3.904;2022-08-01T10:07:06;24.70;79.50
51007;DHT22;37034;47.886;-3.904;2022-08-01T10:09:35;24.80;78.70
51007;DHT22;37034;47.886;-3.904;2022-08-01T10:12:02;24.90;78.80
51007;DHT22;37034;47.886;-3.904;2022-08-01T10:14:29;25.00;78.50
51007;DHT22;37034;47.886;-3.904;2022-08-01T10:16:58;25.00;78.60
51007;DHT22;37034;47.886;-3.904;2022-08-01T10:19:25;25.10;78.40
51007;DHT22;37034;47.886;-3.904;2022-08-01T10:21:53;25.10;77.80
51007;DHT22;37034;47.886;-3.904;2022-08-01T10:24:23;25.00;76.40
51007;DHT22;37034;47.886;-3.904;2022-08-01T10:26:52;25.00;77.70
51007;DHT22;37034;47.886;-3.904;2022-08-01T10:29:21;25.10;77.80
51007;DHT22;37034;47.886;-3.904;2022-08-01T10:31:48;25.20;77.10
51007;DHT22;37034;47.886;-3.904;2022-08-01T10:34:16;25.20;77.00
51007;DHT22;37034;47.886;-3.904;2022-08-01T10:36:45;25.20;76.50
51007;DHT22;37034;47.886;-3.904;2022-08-01T10:39:11;25.30;77.70
51007;DHT22;37034;47.886;-3.904;2022-08-01T10:41:41;25.50;77.70
51007;DHT22;37034;47.886;-3.904;2022-08-01T10:44:07;25.50;76.80
51007;DHT22;37034;47.886;-3.904;2022-08-01T10:46:38;25.60;78.40
51007;DHT22;37034;47.886;-3.904;2022-08-01T10:49:10;25.90;77.20
51007;DHT22;37034;47.886;-3.904;2022-08-01T10:51:40;25.90;76.70
51007;DHT22;37034;47.886;-3.904;2022-08-01T10:54:07;26.00;76.30
51007;DHT22;37034;47.886;-3.904;2022-08-01T10:56:43;26.10;77.00
51007;DHT22;37034;47.886;-3.904;2022-08-01T10:59:09;26.10;76.40
51007;DHT22;37034;47.886;-3.904;2022-08-01T11:01:35;26.20;75.40
51007;DHT22;37034;47.886;-3.904;2022-08-01T11:08:58;26.40;75.80
51007;DHT22;37034;47.886;-3.904;2022-08-01T11:11:25;26.50;75.40
51007;DHT22;37034;47.886;-3.904;2022-08-01T11:16:34;26.70;75.40
51007;DHT22;37034;47.886;-3.904;2022-08-01T11:19:01;26.80;73.90
51007;DHT22;37034;47.886;-3.904;2022-08-01T11:27:21;27.00;73.40
51007;DHT22;37034;47.886;-3.904;2022-08-01T11:32:54;26.90;73.10
51007;DHT22;37034;47.886;-3.904;2022-08-01T11:35:24;26.90;73.30
51007;DHT22;37034;47.886;-3.904;2022-08-01T11:37:55;26.90;72.70
51007;DHT22;37034;47.886;-3.904;2022-08-01T11:40:27;27.00;73.40
51007;DHT22;37034;47.886;-3.904;2022-08-01T11:43:18;27.00;73.00
51007;DHT22;37034;47.886;-3.904;2022-08-01T11:48:23;27.00;72.80
51007;DHT22;37034;47.886;-3.904;2022-08-01T11:50:54;27.20;72.00
51007;DHT22;37034;47.886;-3.904;2022-08-01T11:53:20;27.40;72.60
51007;DHT22;37034;47.886;-3.904;2022-08-01T11:55:48;27.50;72.50
51007;DHT22;37034;47.886;-3.904;2022-08-01T11:58:15;27.50;71.30
51007;DHT22;37034;47.886;-3.904;2022-08-01T12:00:41;27.60;71.30
51007;DHT22;37034;47.886;-3.904;2022-08-01T12:03:15;27.40;71.70
51007;DHT22;37034;47.886;-3.904;2022-08-01T12:05:43;27.40;71.70
51007;DHT22;37034;47.886;-3.904;2022-08-01T12:08:09;27.40;71.50
51007;DHT22;37034;47.886;-3.904;2022-08-01T12:10:35;27.20;71.90
51007;DHT22;37034;47.886;-3.904;2022-08-01T12:13:06;27.30;72.20
51007;DHT22;37034;47.886;-3.904;2022-08-01T12:15:36;27.20;71.40
51007;DHT22;37034;47.886;-3.904;2022-08-01T12:18:04;27.40;71.10
51007;DHT22;37034;47.886;-3.904;2022-08-01T12:20:32;27.50;71.80
51007;DHT22;37034;47.886;-3.904;2022-08-01T12:23:05;27.70;71.70
51007;DHT22;37034;47.886;-3.904;2022-08-01T12:25:31;27.70;71.30
51007;DHT22;37034;47.886;-3.904;2022-08-01T12:28:04;27.80;70.90
51007;DHT22;37034;47.886;-3.904;2022-08-01T12:30:32;27.90;71.10
51007;DHT22;37034;47.886;-3.904;2022-08-01T12:33:03;28.00;69.70
51007;DHT22;37034;47.886;-3.904;2022-08-01T12:35:29;27.90;69.60
51007;DHT22;37034;47.886;-3.904;2022-08-01T12:37:59;28.00;70.50
51007;DHT22;37034;47.886;-3.904;2022-08-01T12:40:29;27.90;70.00
51007;DHT22;37034;47.886;-3.904;2022-08-01T12:43:00;27.90;70.00
51007;DHT22;37034;47.886;-3.904;2022-08-01T12:45:32;27.90;70.50
51007;DHT22;37034;47.886;-3.904;2022-08-01T12:47:59;28.10;70.00
51007;DHT22;37034;47.886;-3.904;2022-08-01T12:50:28;27.80;69.00
51007;DHT22;37034;47.886;-3.904;2022-08-01T12:52:55;27.70;70.00
51007;DHT22;37034;47.886;-3.904;2022-08-01T12:55:23;27.60;69.80
51007;DHT22;37034;47.886;-3.904;2022-08-01T12:58:13;27.60;69.50
51007;DHT22;37034;47.886;-3.904;2022-08-01T13:00:38;27.60;70.40
51007;DHT22;37034;47.886;-3.904;2022-08-01T13:03:18;27.60;69.40
51007;DHT22;37034;47.886;-3.904;2022-08-01T13:05:55;27.50;69.90
51007;DHT22;37034;47.886;-3.904;2022-08-01T13:08:30;27.30;70.40
51007;DHT22;37034;47.886;-3.904;2022-08-01T13:11:03;27.60;70.10
51007;DHT22;37034;47.886;-3.904;2022-08-01T13:13:39;27.60;70.00
51007;DHT22;37034;47.886;-3.904;2022-08-01T13:16:06;27.60;69.20
51007;DHT22;37034;47.886;-3.904;2022-08-01T13:18:34;27.40;69.30
51007;DHT22;37034;47.886;-3.904;2022-08-01T13:21:10;27.20;69.80
51007;DHT22;37034;47.886;-3.904;2022-08-01T13:23:36;27.00;70.40
51007;DHT22;37034;47.886;-3.904;2022-08-01T13:26:03;27.00;70.10
51007;DHT22;37034;47.886;-3.904;2022-08-01T13:28:29;27.10;70.60
51007;DHT22;37034;47.886;-3.904;2022-08-01T13:31:00;27.10;70.10
51007;DHT22;37034;47.886;-3.904;2022-08-01T13:33:27;27.10;70.30
51007;DHT22;37034;47.886;-3.904;2022-08-01T13:35:55;27.30;70.20
51007;DHT22;37034;47.886;-3.904;2022-08-01T13:38:21;27.40;70.20
51007;DHT22;37034;47.886;-3.904;2022-08-01T13:41:07;27.70;69.90
51007;DHT22;37034;47.886;-3.904;2022-08-01T13:43:33;27.70;69.70
51007;DHT22;37034;47.886;-3.904;2022-08-01T13:46:01;27.90;69.70
51007;DHT22;37034;47.886;-3.904;2022-08-01T13:48:30;27.60;69.20
51007;DHT22;37034;47.886;-3.904;2022-08-01T13:50:56;27.50;69.00
51007;DHT22;37034;47.886;-3.904;2022-08-01T13:53:21;27.40;69.60
51007;DHT22;37034;47.886;-3.904;2022-08-01T13:55:47;27.30;69.20
51007;DHT22;37034;47.886;-3.904;2022-08-01T13:58:13;27.30;69.20
51007;DHT22;37034;47.886;-3.904;2022-08-01T14:00:38;27.10;69.60
51007;DHT22;37034;47.886;-3.904;2022-08-01T14:03:04;27.00;69.80
51007;DHT22;37034;47.886;-3.904;2022-08-01T14:05:30;27.30;70.10
51007;DHT22;37034;47.886;-3.904;2022-08-01T14:07:56;27.50;69.90
51007;DHT22;37034;47.886;-3.904;2022-08-01T14:10:23;27.60;69.60
51007;DHT22;37034;47.886;-3.904;2022-08-01T14:12:48;27.50;69.10
51007;DHT22;37034;47.886;-3.904;2022-08-01T14:15:15;27.30;69.20
51007;DHT22;37034;47.886;-3.904;2022-08-01T14:17:41;27.30;69.30
51007;DHT22;37034;47.886;-3.904;2022-08-01T14:20:07;27.10;69.60
51007;DHT22;37034;47.886;-3.904;2022-08-01T14:22:33;27.00;69.70
51007;DHT22;37034;47.886;-3.904;2022-08-01T14:24:59;26.90;69.50
51007;DHT22;37034;47.886;-3.904;2022-08-01T14:27:25;26.70;69.70
51007;DHT22;37034;47.886;-3.904;2022-08-01T14:29:50;26.60;70.40
51007;DHT22;37034;47.886;-3.904;2022-08-01T14:32:16;26.70;70.60
51007;DHT22;37034;47.886;-3.904;2022-08-01T14:34:41;26.80;70.70
51007;DHT22;37034;47.886;-3.904;2022-08-01T14:37:07;27.10;70.50
51007;DHT22;37034;47.886;-3.904;2022-08-01T14:39:33;27.30;69.80
51007;DHT22;37034;47.886;-3.904;2022-08-01T14:41:58;27.20;69.10
51007;DHT22;37034;47.886;-3.904;2022-08-01T14:44:24;27.10;69.50
51007;DHT22;37034;47.886;-3.904;2022-08-01T14:46:50;26.70;69.90
51007;DHT22;37034;47.886;-3.904;2022-08-01T14:49:15;26.80;70.70
51007;DHT22;37034;47.886;-3.904;2022-08-01T14:51:41;26.80;70.50
51007;DHT22;37034;47.886;-3.904;2022-08-01T14:54:07;27.00;70.30
51007;DHT22;37034;47.886;-3.904;2022-08-01T14:56:32;26.90;70.10
51007;DHT22;37034;47.886;-3.904;2022-08-01T14:58:58;26.90;70.00
51007;DHT22;37034;47.886;-3.904;2022-08-01T15:01:24;27.00;70.00
51007;DHT22;37034;47.886;-3.904;2022-08-01T15:03:50;26.90;69.90
51007;DHT22;37034;47.886;-3.904;2022-08-01T15:06:16;26.90;70.20
51007;DHT22;37034;47.886;-3.904;2022-08-01T15:08:42;27.00;70.40
51007;DHT22;37034;47.886;-3.904;2022-08-01T15:11:08;27.20;70.40
51007;DHT22;37034;47.886;-3.904;2022-08-01T15:13:34;27.20;69.70
51007;DHT22;37034;47.886;-3.904;2022-08-01T15:16:00;27.20;70.00
51007;DHT22;37034;47.886;-3.904;2022-08-01T15:18:27;27.40;69.90
51007;DHT22;37034;47.886;-3.904;2022-08-01T15:20:53;27.40;69.50
51007;DHT22;37034;47.886;-3.904;2022-08-01T15:23:18;27.20;69.50
51007;DHT22;37034;47.886;-3.904;2022-08-01T15:25:44;27.30;69.30
51007;DHT22;37034;47.886;-3.904;2022-08-01T15:28:10;27.30;69.60
51007;DHT22;37034;47.886;-3.904;2022-08-01T15:30:36;27.50;69.40
51007;DHT22;37034;47.886;-3.904;2022-08-01T15:33:02;27.50;69.50
51007;DHT22;37034;47.886;-3.904;2022-08-01T15:35:28;27.60;69.10
51007;DHT22;37034;47.886;-3.904;2022-08-01T15:37:54;27.60;69.10
51007;DHT22;37034;47.886;-3.904;2022-08-01T15:40:19;27.60;69.40
51007;DHT22;37034;47.886;-3.904;2022-08-01T15:42:45;27.50;69.30
51007;DHT22;37034;47.886;-3.904;2022-08-01T15:45:11;27.60;69.30
51007;DHT22;37034;47.886;-3.904;2022-08-01T15:47:42;27.50;68.70
51007;DHT22;37034;47.886;-3.904;2022-08-01T15:50:07;27.50;69.20
51007;DHT22;37034;47.886;-3.904;2022-08-01T15:52:33;27.60;69.00
51007;DHT22;37034;47.886;-3.904;2022-08-01T15:54:59;27.60;68.90